PIA451 OPIS-OPSD
Flight info
| Callsign | PIA451 |
|---|---|
| Flight time | 0h 38m |
| Altitude | 31000 |
| Route | BOBAM1R BOBAM DCT KAGLO J186 KAPMI DCT BUNGI DCT BIREB DCT |
| Aircraft | A320/M-SDE3FGHIRWY/LB1 |
Departure
| Time | 2026-04-27 21:01 |
|---|---|
| Airport | Islamabad International Airport (OPIS) |
Arrival
| Time | 2026-04-27 21:39 |
|---|---|
| Airport | Skardu International Airport (OPSD) |
| Time | Latitude | Longitude | Altitude | Speed | Heading |
|---|---|---|---|---|---|
| 2026-04-27 20:54 | 33.55467 | 72.82969 | 1770 ft | 0 kts | 144° |
| 2026-04-27 20:54 | 33.55467 | 72.82970 | 1770 ft | 0 kts | 144° |
| 2026-04-27 20:55 | 33.55458 | 72.82968 | 1773 ft | 4 kts | 197° |
| 2026-04-27 20:55 | 33.55482 | 72.82933 | 1771 ft | 13 kts | 330° |
| 2026-04-27 20:56 | 33.55508 | 72.82826 | 1772 ft | 16 kts | 243° |
| 2026-04-27 20:56 | 33.55443 | 72.82702 | 1770 ft | 19 kts | 236° |
| 2026-04-27 20:56 | 33.55326 | 72.82615 | 1772 ft | 22 kts | 188° |
| 2026-04-27 20:56 | 33.55223 | 72.82603 | 1769 ft | 11 kts | 164° |
| 2026-04-27 20:57 | 33.55182 | 72.82676 | 1771 ft | 11 kts | 97° |
| 2026-04-27 20:57 | 33.55168 | 72.82764 | 1770 ft | 11 kts | 102° |
| 2026-04-27 20:57 | 33.55154 | 72.82850 | 1769 ft | 10 kts | 100° |
| 2026-04-27 20:57 | 33.55140 | 72.82933 | 1768 ft | 10 kts | 100° |
| 2026-04-27 20:58 | 33.55127 | 72.83016 | 1768 ft | 10 kts | 100° |
| 2026-04-27 20:58 | 33.55117 | 72.83100 | 1768 ft | 10 kts | 98° |
| 2026-04-27 20:58 | 33.55101 | 72.83192 | 1768 ft | 16 kts | 101° |
| 2026-04-27 20:58 | 33.55075 | 72.83361 | 1769 ft | 23 kts | 101° |
| 2026-04-27 20:59 | 33.55053 | 72.83470 | 1769 ft | 9 kts | 127° |
| 2026-04-27 20:59 | 33.54992 | 72.83474 | 1771 ft | 9 kts | 188° |
| 2026-04-27 20:59 | 33.54921 | 72.83462 | 1765 ft | 12 kts | 190° |
| 2026-04-27 20:59 | 33.54874 | 72.83450 | 1766 ft | 3 kts | 211° |
| 2026-04-27 21:00 | 33.54869 | 72.83426 | 1764 ft | 3 kts | 268° |
| 2026-04-27 21:00 | 33.54871 | 72.83403 | 1766 ft | 14 kts | 277° |
| 2026-04-27 21:00 | 33.54964 | 72.82806 | 1760 ft | 128 kts | 281° |
| 2026-04-27 21:00 | 33.55185 | 72.81423 | 1996 ft | 188 kts | 282° |
| 2026-04-27 21:01 | 33.55431 | 72.79927 | 3215 ft | 193 kts | 281° |
| 2026-04-27 21:01 | 33.55661 | 72.78226 | 4224 ft | 219 kts | 279° |
| 2026-04-27 21:01 | 33.55906 | 72.76338 | 5438 ft | 236 kts | 279° |
| 2026-04-27 21:01 | 33.56255 | 72.74262 | 6371 ft | 270 kts | 289° |
| 2026-04-27 21:02 | 33.57323 | 72.72372 | 6781 ft | 280 kts | 320° |
| 2026-04-27 21:02 | 33.59130 | 72.71439 | 7496 ft | 291 kts | 352° |
| 2026-04-27 21:02 | 33.61147 | 72.71680 | 8599 ft | 296 kts | 14° |
| 2026-04-27 21:02 | 33.63144 | 72.72372 | 9687 ft | 300 kts | 15° |
| 2026-04-27 21:03 | 33.65174 | 72.73127 | 10452 ft | 315 kts | 15° |
| 2026-04-27 21:03 | 33.67341 | 72.73952 | 10886 ft | 340 kts | 16° |
| 2026-04-27 21:03 | 33.69682 | 72.74844 | 11280 ft | 363 kts | 16° |
| 2026-04-27 21:03 | 33.72134 | 72.75776 | 11976 ft | 374 kts | 16° |
| 2026-04-27 21:04 | 33.74635 | 72.76724 | 12826 ft | 380 kts | 16° |
| 2026-04-27 21:04 | 33.77174 | 72.77679 | 13688 ft | 385 kts | 16° |
| 2026-04-27 21:04 | 33.79741 | 72.78640 | 14525 ft | 388 kts | 16° |
| 2026-04-27 21:04 | 33.82338 | 72.79610 | 15302 ft | 393 kts | 16° |
| 2026-04-27 21:05 | 33.84969 | 72.80591 | 16060 ft | 399 kts | 16° |
| 2026-04-27 21:05 | 33.87638 | 72.81588 | 16829 ft | 405 kts | 16° |
| 2026-04-27 21:05 | 33.90350 | 72.82602 | 17578 ft | 410 kts | 15° |
| 2026-04-27 21:05 | 33.93095 | 72.83627 | 18303 ft | 416 kts | 15° |
| 2026-04-27 21:06 | 33.95876 | 72.84669 | 18977 ft | 421 kts | 15° |
| 2026-04-27 21:06 | 33.98689 | 72.85726 | 19657 ft | 426 kts | 15° |
| 2026-04-27 21:06 | 34.01532 | 72.86795 | 20327 ft | 430 kts | 15° |
| 2026-04-27 21:06 | 34.04403 | 72.87873 | 20997 ft | 435 kts | 15° |
| 2026-04-27 21:07 | 34.07304 | 72.88963 | 21628 ft | 439 kts | 15° |
| 2026-04-27 21:07 | 34.10237 | 72.90067 | 22243 ft | 444 kts | 15° |
| 2026-04-27 21:07 | 34.13204 | 72.91182 | 22825 ft | 449 kts | 15° |
| 2026-04-27 21:07 | 34.16194 | 72.92310 | 23403 ft | 453 kts | 15° |
| 2026-04-27 21:08 | 34.19209 | 72.93449 | 23884 ft | 456 kts | 15° |
| 2026-04-27 21:08 | 34.22256 | 72.94600 | 24369 ft | 459 kts | 15° |
| 2026-04-27 21:08 | 34.25309 | 72.95755 | 24867 ft | 462 kts | 15° |
| 2026-04-27 21:08 | 34.28389 | 72.96921 | 25330 ft | 465 kts | 15° |
| 2026-04-27 21:09 | 34.31486 | 72.98093 | 25789 ft | 468 kts | 15° |
| 2026-04-27 21:09 | 34.34599 | 72.99271 | 26200 ft | 470 kts | 14° |
| 2026-04-27 21:09 | 34.37736 | 73.00461 | 26604 ft | 473 kts | 15° |
| 2026-04-27 21:09 | 34.40758 | 73.02098 | 27005 ft | 481 kts | 30° |
| 2026-04-27 21:10 | 34.43384 | 73.04646 | 27427 ft | 487 kts | 43° |
| 2026-04-27 21:10 | 34.45769 | 73.07571 | 27804 ft | 490 kts | 44° |
| 2026-04-27 21:10 | 34.48160 | 73.10543 | 28225 ft | 493 kts | 44° |
| 2026-04-27 21:10 | 34.50549 | 73.13537 | 28578 ft | 496 kts | 44° |
| 2026-04-27 21:11 | 34.52952 | 73.16551 | 28921 ft | 498 kts | 44° |
| 2026-04-27 21:11 | 34.55371 | 73.19583 | 29231 ft | 501 kts | 44° |
| 2026-04-27 21:11 | 34.57799 | 73.22618 | 29515 ft | 503 kts | 44° |
| 2026-04-27 21:11 | 34.60244 | 73.25668 | 29896 ft | 503 kts | 44° |
| 2026-04-27 21:12 | 34.62670 | 73.28693 | 30276 ft | 500 kts | 44° |
| 2026-04-27 21:12 | 34.64279 | 73.30700 | 30520 ft | 499 kts | 44° |
| 2026-04-27 21:12 | 34.66699 | 73.33723 | 30821 ft | 499 kts | 44° |
| 2026-04-27 21:13 | 34.71532 | 73.39763 | 30998 ft | 491 kts | 44° |
| 2026-04-27 21:13 | 34.76285 | 73.45719 | 30992 ft | 490 kts | 44° |
| 2026-04-27 21:14 | 34.81346 | 73.51133 | 31034 ft | 488 kts | 35° |
| 2026-04-27 21:14 | 34.86724 | 73.56175 | 31056 ft | 488 kts | 36° |
| 2026-04-27 21:15 | 34.92085 | 73.61219 | 31044 ft | 486 kts | 36° |
| 2026-04-27 21:15 | 34.97427 | 73.66249 | 31059 ft | 486 kts | 36° |
| 2026-04-27 21:16 | 35.02804 | 73.71330 | 31062 ft | 486 kts | 36° |
| 2026-04-27 21:16 | 35.08140 | 73.76380 | 31046 ft | 486 kts | 36° |
| 2026-04-27 21:17 | 35.13480 | 73.81443 | 31031 ft | 486 kts | 36° |
| 2026-04-27 21:17 | 35.18818 | 73.86496 | 31008 ft | 485 kts | 36° |
| 2026-04-27 21:18 | 35.24152 | 73.91571 | 31006 ft | 485 kts | 36° |
| 2026-04-27 21:18 | 35.29469 | 73.96636 | 30990 ft | 485 kts | 36° |
| 2026-04-27 21:19 | 35.34800 | 74.01711 | 30987 ft | 485 kts | 36° |
| 2026-04-27 21:19 | 35.39990 | 74.06983 | 30974 ft | 487 kts | 44° |
| 2026-04-27 21:20 | 35.43958 | 74.13721 | 30868 ft | 491 kts | 61° |
| 2026-04-27 21:20 | 35.45522 | 74.17429 | 30627 ft | 484 kts | 62° |
| 2026-04-27 21:20 | 35.47050 | 74.21061 | 30386 ft | 476 kts | 62° |
| 2026-04-27 21:20 | 35.48558 | 74.24647 | 30365 ft | 472 kts | 62° |
| 2026-04-27 21:21 | 35.51548 | 74.31774 | 29229 ft | 469 kts | 62° |
| 2026-04-27 21:21 | 35.53044 | 74.35347 | 28104 ft | 471 kts | 62° |
| 2026-04-27 21:21 | 35.54526 | 74.38887 | 27002 ft | 473 kts | 62° |
| 2026-04-27 21:22 | 35.56032 | 74.42487 | 25884 ft | 475 kts | 62° |
| 2026-04-27 21:22 | 35.57545 | 74.46104 | 25078 ft | 477 kts | 62° |
| 2026-04-27 21:22 | 35.59054 | 74.49717 | 24752 ft | 471 kts | 62° |
| 2026-04-27 21:22 | 35.60513 | 74.53222 | 24568 ft | 451 kts | 63° |
| 2026-04-27 21:23 | 35.61677 | 74.56708 | 24361 ft | 434 kts | 71° |
| 2026-04-27 21:23 | 35.62439 | 74.60250 | 23908 ft | 425 kts | 80° |
| 2026-04-27 21:23 | 35.62795 | 74.63818 | 23522 ft | 420 kts | 88° |
| 2026-04-27 21:23 | 35.62793 | 74.67396 | 23200 ft | 414 kts | 95° |
| 2026-04-27 21:24 | 35.62569 | 74.70874 | 22863 ft | 403 kts | 96° |
| 2026-04-27 21:24 | 35.62350 | 74.74270 | 22524 ft | 395 kts | 96° |
| 2026-04-27 21:24 | 35.62137 | 74.77615 | 22188 ft | 390 kts | 96° |
| 2026-04-27 21:24 | 35.61926 | 74.80908 | 21921 ft | 383 kts | 96° |
| 2026-04-27 21:25 | 35.61713 | 74.84148 | 21619 ft | 378 kts | 96° |
| 2026-04-27 21:25 | 35.61496 | 74.87349 | 21323 ft | 375 kts | 96° |
| 2026-04-27 21:25 | 35.61277 | 74.90533 | 21021 ft | 372 kts | 96° |
| 2026-04-27 21:25 | 35.61058 | 74.93695 | 20727 ft | 370 kts | 96° |
| 2026-04-27 21:26 | 35.60843 | 74.96831 | 20427 ft | 367 kts | 96° |
| 2026-04-27 21:26 | 35.60630 | 74.99942 | 20147 ft | 365 kts | 96° |
| 2026-04-27 21:26 | 35.60419 | 75.03048 | 19863 ft | 363 kts | 96° |
| 2026-04-27 21:26 | 35.60208 | 75.06126 | 19563 ft | 360 kts | 96° |
| 2026-04-27 21:27 | 35.59997 | 75.09173 | 19280 ft | 356 kts | 96° |
| 2026-04-27 21:27 | 35.59788 | 75.12173 | 18979 ft | 348 kts | 96° |
| 2026-04-27 21:27 | 35.59583 | 75.15111 | 18682 ft | 342 kts | 96° |
| 2026-04-27 21:27 | 35.59385 | 75.18004 | 18384 ft | 338 kts | 96° |
| 2026-04-27 21:28 | 35.59186 | 75.20870 | 18042 ft | 335 kts | 96° |
| 2026-04-27 21:28 | 35.58980 | 75.23714 | 17710 ft | 333 kts | 96° |
| 2026-04-27 21:28 | 35.58773 | 75.26543 | 17378 ft | 331 kts | 96° |
| 2026-04-27 21:28 | 35.58493 | 75.29334 | 17049 ft | 328 kts | 103° |
| 2026-04-27 21:29 | 35.57758 | 75.31961 | 16723 ft | 325 kts | 118° |
| 2026-04-27 21:29 | 35.56543 | 75.34276 | 16608 ft | 321 kts | 131° |
| 2026-04-27 21:29 | 35.54947 | 75.36161 | 16619 ft | 314 kts | 144° |
| 2026-04-27 21:29 | 35.53210 | 75.37672 | 16617 ft | 299 kts | 146° |
| 2026-04-27 21:30 | 35.51534 | 75.39122 | 16346 ft | 295 kts | 146° |
| 2026-04-27 21:30 | 35.49839 | 75.40588 | 15762 ft | 300 kts | 146° |
| 2026-04-27 21:30 | 35.48146 | 75.42023 | 15312 ft | 291 kts | 149° |
| 2026-04-27 21:30 | 35.46392 | 75.43174 | 14927 ft | 281 kts | 153° |
| 2026-04-27 21:31 | 35.44657 | 75.44199 | 14525 ft | 273 kts | 156° |
| 2026-04-27 21:31 | 35.42926 | 75.45085 | 14111 ft | 267 kts | 158° |
| 2026-04-27 21:31 | 35.41217 | 75.45929 | 13672 ft | 262 kts | 158° |
| 2026-04-27 21:31 | 35.39535 | 75.46752 | 13211 ft | 258 kts | 158° |
| 2026-04-27 21:32 | 35.37875 | 75.47565 | 12763 ft | 255 kts | 158° |
| 2026-04-27 21:32 | 35.36224 | 75.48290 | 12323 ft | 249 kts | 162° |
| 2026-04-27 21:32 | 35.34572 | 75.48935 | 11911 ft | 244 kts | 163° |
| 2026-04-27 21:32 | 35.33002 | 75.49588 | 11524 ft | 239 kts | 162° |
| 2026-04-27 21:33 | 35.31411 | 75.50269 | 11075 ft | 245 kts | 154° |
| 2026-04-27 21:33 | 35.30150 | 75.51599 | 10598 ft | 240 kts | 122° |
| 2026-04-27 21:33 | 35.29660 | 75.53500 | 10189 ft | 235 kts | 89° |
| 2026-04-27 21:33 | 35.30110 | 75.55351 | 10118 ft | 229 kts | 54° |
| 2026-04-27 21:34 | 35.31308 | 75.56583 | 10117 ft | 227 kts | 20° |
| 2026-04-27 21:34 | 35.32849 | 75.56807 | 10115 ft | 224 kts | 347° |
| 2026-04-27 21:34 | 35.34310 | 75.56195 | 9849 ft | 222 kts | 335° |
| 2026-04-27 21:34 | 35.35710 | 75.55393 | 9543 ft | 222 kts | 333° |
| 2026-04-27 21:35 | 35.37015 | 75.54504 | 9405 ft | 207 kts | 321° |
| 2026-04-27 21:35 | 35.38070 | 75.53392 | 9386 ft | 195 kts | 319° |
| 2026-04-27 21:35 | 35.39104 | 75.52345 | 9382 ft | 191 kts | 321° |
| 2026-04-27 21:35 | 35.40123 | 75.51319 | 9349 ft | 187 kts | 321° |
| 2026-04-27 21:36 | 35.41086 | 75.50350 | 9175 ft | 172 kts | 321° |
| 2026-04-27 21:36 | 35.41812 | 75.49266 | 8945 ft | 160 kts | 286° |
| 2026-04-27 21:36 | 35.41537 | 75.48012 | 8355 ft | 169 kts | 204° |
| 2026-04-27 21:36 | 35.40443 | 75.48331 | 7711 ft | 173 kts | 137° |
| 2026-04-27 21:37 | 35.39622 | 75.49234 | 7969 ft | 165 kts | 137° |
| 2026-04-27 21:37 | 35.38782 | 75.50180 | 7993 ft | 161 kts | 141° |
| 2026-04-27 21:37 | 35.37845 | 75.50890 | 7976 ft | 158 kts | 153° |
| 2026-04-27 21:37 | 35.36891 | 75.51528 | 7874 ft | 157 kts | 150° |
| 2026-04-27 21:38 | 35.35945 | 75.52269 | 7658 ft | 163 kts | 149° |
| 2026-04-27 21:38 | 35.35001 | 75.53000 | 7412 ft | 157 kts | 149° |
| 2026-04-27 21:38 | 35.34144 | 75.53668 | 7345 ft | 133 kts | 147° |
| 2026-04-27 21:38 | 35.33645 | 75.54068 | 7343 ft | 62 kts | 147° |
| 2026-04-27 21:39 | 35.33434 | 75.54239 | 7347 ft | 22 kts | 146° |
| 2026-04-27 21:39 | 35.33313 | 75.54334 | 7347 ft | 15 kts | 147° |
| 2026-04-27 21:39 | 35.33260 | 75.54344 | 7347 ft | 5 kts | 214° |
| 2026-04-27 21:39 | 35.33231 | 75.54318 | 7435 ft | 6 kts | 218° |
| 2026-04-27 21:40 | 35.33206 | 75.54273 | 7347 ft | 8 kts | 243° |
| 2026-04-27 21:40 | 35.33175 | 75.54206 | 7347 ft | 11 kts | 239° |
| 2026-04-27 21:40 | 35.33131 | 75.54124 | 7347 ft | 8 kts | 238° |
| 2026-04-27 21:40 | 35.33115 | 75.54093 | 7347 ft | 3 kts | 237° |
| 2026-04-27 21:41 | 35.33104 | 75.54083 | 7346 ft | 1 kts | 205° |
| 2026-04-27 21:41 | 35.33066 | 75.54095 | 7345 ft | 0 kts | 151° |